createdAt,value
2022-10-09T00:00:09.015Z,3.38
2022-10-09T00:05:13.455Z,3.60
2022-10-09T00:10:15.035Z,3.67
2022-10-09T00:15:16.641Z,3.30
2022-10-09T00:20:18.188Z,3.35
2022-10-09T00:25:19.681Z,2.95
2022-10-09T00:30:21.165Z,3.35
2022-10-09T00:35:23.209Z,3.22
2022-10-09T00:40:24.878Z,3.50
2022-10-09T00:45:26.909Z,3.10
2022-10-09T00:50:38.670Z,3.22
2022-10-09T00:55:40.519Z,3.20
2022-10-09T01:00:42.041Z,3.28
2022-10-09T01:05:55.556Z,3.28
2022-10-09T01:11:14.967Z,3.00
2022-10-09T01:16:24.030Z,2.97
2022-10-09T01:21:52.357Z,3.30
2022-10-09T01:27:12.644Z,3.42
2022-10-09T01:32:17.632Z,3.10
2022-10-09T01:37:20.677Z,3.50
2022-10-09T01:42:23.154Z,3.40
2022-10-09T01:47:24.686Z,2.92
2022-10-09T01:52:36.248Z,2.63
2022-10-09T01:57:48.445Z,2.97
2022-10-09T02:02:51.264Z,3.10
2022-10-09T02:07:53.685Z,3.40
2022-10-09T02:12:58.038Z,3.47
2022-10-09T02:18:03.601Z,3.40
2022-10-09T02:23:07.395Z,3.45
2022-10-09T02:28:09.687Z,3.60
2022-10-09T02:33:11.208Z,3.63
2022-10-09T02:38:12.761Z,3.97
2022-10-09T02:43:14.305Z,3.78
2022-10-09T02:48:15.847Z,3.40
2022-10-09T02:53:17.363Z,3.30
2022-10-09T02:58:18.872Z,3.38
2022-10-09T03:03:20.865Z,3.67
2022-10-09T03:08:22.353Z,3.30
2022-10-09T03:13:24.357Z,3.15
2022-10-09T03:18:25.891Z,2.63
2022-10-09T03:23:27.407Z,3.30
2022-10-09T03:28:28.997Z,2.90
2022-10-09T03:33:30.708Z,3.10
2022-10-09T03:38:32.256Z,3.17
2022-10-09T03:43:35.524Z,3.13
2022-10-09T03:48:38.008Z,3.25
2022-10-09T03:53:39.557Z,2.70
2022-10-09T03:58:41.043Z,2.88
2022-10-09T04:03:42.526Z,2.90
2022-10-09T04:08:44.028Z,2.67
2022-10-09T04:13:45.606Z,3.08
2022-10-09T04:18:47.932Z,3.20
2022-10-09T04:23:50.786Z,2.80
2022-10-09T04:28:52.265Z,2.92
2022-10-09T04:33:56.754Z,3.00
2022-10-09T04:38:58.353Z,2.70
2022-10-09T04:43:59.885Z,2.65
2022-10-09T04:49:01.411Z,2.63
2022-10-09T04:54:02.936Z,2.40
2022-10-09T04:59:04.960Z,2.75
2022-10-09T05:04:06.454Z,2.75
2022-10-09T05:09:08.014Z,2.88
2022-10-09T05:14:09.843Z,2.47
2022-10-09T05:19:11.361Z,2.80
2022-10-09T05:24:12.882Z,2.30
2022-10-09T05:29:14.384Z,2.50
2022-10-09T05:34:15.988Z,2.33
2022-10-09T05:39:22.207Z,2.53
2022-10-09T05:44:26.412Z,2.50
2022-10-09T05:49:27.912Z,2.28
2022-10-09T05:54:29.415Z,2.53
2022-10-09T05:59:30.949Z,2.13
2022-10-09T06:04:32.491Z,2.60
2022-10-09T06:09:34.051Z,2.30
2022-10-09T06:14:35.556Z,2.20
2022-10-09T06:19:38.155Z,3.03
2022-10-09T06:24:39.685Z,2.42
2022-10-09T06:29:41.188Z,2.33
2022-10-09T06:34:42.675Z,2.30
2022-10-09T06:39:44.784Z,2.42
2022-10-09T06:44:46.476Z,2.13
2022-10-09T06:49:47.969Z,2.10
2022-10-09T06:54:49.466Z,2.10
2022-10-09T06:59:51.877Z,2.08
2022-10-09T07:04:53.346Z,2.50
2022-10-09T07:09:54.869Z,2.20
2022-10-09T07:14:57.073Z,2.22
2022-10-09T07:19:58.763Z,2.38
2022-10-09T07:25:00.389Z,2.10
2022-10-09T07:30:01.936Z,2.38
2022-10-09T07:35:03.581Z,2.50
2022-10-09T07:40:05.565Z,2.42
2022-10-09T07:45:07.381Z,2.10
2022-10-09T07:50:08.972Z,2.10
2022-10-09T07:55:10.527Z,2.15
2022-10-09T08:00:12.352Z,2.03
2022-10-09T08:05:13.843Z,1.88
2022-10-09T08:10:15.427Z,2.58
2022-10-09T08:15:17.075Z,2.35
2022-10-09T08:20:18.635Z,2.67
2022-10-09T08:25:20.194Z,2.45
2022-10-09T08:30:21.812Z,2.42
2022-10-09T08:35:23.461Z,2.40
2022-10-09T08:40:30.958Z,2.50
2022-10-09T08:45:34.452Z,2.50
2022-10-09T08:50:39.807Z,2.50
2022-10-09T08:55:50.030Z,2.60
2022-10-09T09:01:32.998Z,2.22
2022-10-09T09:06:43.574Z,2.63
2022-10-09T09:11:52.734Z,2.33
2022-10-09T09:17:02.268Z,2.42
2022-10-09T09:22:04.282Z,2.25
2022-10-09T09:27:16.719Z,2.35
2022-10-09T09:32:21.886Z,2.40
2022-10-09T09:37:23.432Z,2.28
2022-10-09T09:42:24.966Z,2.13
2022-10-09T09:47:52.093Z,2.10
2022-10-09T09:52:54.620Z,2.13
2022-10-09T09:58:00.968Z,2.17
2022-10-09T10:03:22.740Z,1.80
2022-10-09T10:08:34.691Z,1.90
2022-10-09T10:13:38.388Z,1.73
2022-10-09T10:18:42.125Z,1.50
2022-10-09T10:23:52.484Z,1.80
2022-10-09T10:29:32.190Z,1.52
2022-10-09T10:34:58.142Z,2.00
2022-10-09T10:40:03.866Z,1.55
2022-10-09T10:45:19.192Z,1.63
2022-10-09T10:50:20.989Z,1.75
2022-10-09T10:56:00.281Z,1.58
2022-10-09T11:01:20.214Z,1.45
2022-10-09T11:06:49.688Z,1.65
2022-10-09T11:12:08.236Z,1.40
2022-10-09T11:17:22.833Z,1.27
2022-10-09T11:22:50.204Z,1.50
2022-10-09T11:27:59.176Z,2.38
2022-10-09T11:33:24.180Z,1.48
2022-10-09T11:38:32.163Z,1.20
2022-10-09T11:43:44.152Z,1.23
2022-10-09T11:49:22.657Z,1.20
2022-10-09T11:54:27.344Z,1.25
2022-10-09T11:59:31.399Z,1.20
2022-10-09T12:04:54.053Z,1.20
2022-10-09T12:10:03.815Z,0.95
2022-10-09T12:15:25.020Z,1.38
2022-10-09T12:20:27.254Z,1.23
2022-10-09T12:25:32.488Z,1.20
2022-10-09T12:30:37.271Z,1.15
2022-10-09T12:35:39.805Z,1.00
2022-10-09T12:40:45.923Z,1.20
2022-10-09T12:45:48.239Z,0.90
2022-10-09T12:50:50.099Z,1.00
2022-10-09T12:55:59.321Z,1.10
2022-10-09T13:01:03.942Z,1.10
2022-10-09T13:06:07.733Z,1.50
2022-10-09T13:11:18.611Z,1.45
2022-10-09T13:16:20.803Z,1.48
2022-10-09T13:21:31.352Z,1.50
2022-10-09T13:26:36.248Z,1.33
2022-10-09T13:31:42.867Z,1.15
2022-10-09T13:36:44.462Z,1.40
2022-10-09T13:41:48.578Z,1.27
2022-10-09T13:46:50.167Z,1.30
2022-10-09T13:51:51.753Z,1.10
2022-10-09T13:56:53.445Z,1.15
2022-10-09T14:01:55.060Z,1.38
2022-10-09T14:06:56.881Z,1.10
2022-10-09T14:11:58.877Z,1.02
2022-10-09T14:17:00.481Z,1.13
2022-10-09T14:22:02.067Z,1.10
2022-10-09T14:27:03.660Z,1.30
2022-10-09T14:32:05.773Z,1.30
2022-10-09T14:37:18.365Z,1.02
2022-10-09T14:42:25.523Z,1.15
2022-10-09T14:47:27.089Z,1.23
2022-10-09T14:52:28.703Z,1.40
2022-10-09T14:57:34.308Z,1.52
2022-10-09T15:02:37.076Z,1.23
2022-10-09T15:07:38.648Z,1.45
2022-10-09T15:12:40.930Z,1.55
2022-10-09T15:17:42.439Z,1.40
2022-10-09T15:22:44.559Z,1.48
2022-10-09T15:27:46.563Z,1.60
2022-10-09T15:32:49.352Z,1.15
2022-10-09T15:37:53.783Z,1.27
2022-10-09T15:42:57.256Z,1.75
2022-10-09T15:47:58.765Z,1.70
2022-10-09T15:53:00.307Z,1.40
2022-10-09T15:58:01.871Z,1.55
2022-10-09T16:03:04.044Z,1.50
2022-10-09T16:08:06.531Z,1.65
2022-10-09T16:13:08.022Z,1.35
2022-10-09T16:18:10.025Z,1.70
2022-10-09T16:23:12.133Z,1.55
2022-10-09T16:28:13.696Z,1.70
2022-10-09T16:33:15.304Z,1.40
2022-10-09T16:38:17.664Z,1.90
2022-10-09T16:43:20.083Z,2.40
2022-10-09T16:48:21.622Z,2.03
2022-10-09T16:53:23.105Z,2.67
2022-10-09T16:58:24.618Z,2.50
2022-10-09T17:03:27.313Z,2.10
2022-10-09T17:08:30.213Z,2.10
2022-10-09T17:13:31.870Z,2.58
2022-10-09T17:18:34.717Z,2.50
2022-10-09T17:23:36.855Z,2.33
2022-10-09T17:28:40.501Z,2.28
2022-10-09T17:33:45.806Z,2.58
2022-10-09T17:38:48.744Z,2.17
2022-10-09T17:43:54.628Z,2.53
2022-10-09T17:48:57.090Z,2.40
2022-10-09T17:54:01.181Z,2.80
2022-10-09T17:59:03.384Z,2.90
2022-10-09T18:04:05.215Z,2.80
2022-10-09T18:09:09.757Z,3.45
2022-10-09T18:14:11.980Z,3.42
2022-10-09T18:19:18.280Z,3.40
2022-10-09T18:24:19.886Z,2.92
2022-10-09T18:29:21.519Z,3.53
2022-10-09T18:34:27.268Z,3.67
2022-10-09T18:39:29.042Z,3.20
2022-10-09T18:44:40.084Z,2.83
2022-10-09T18:49:44.228Z,2.80
2022-10-09T18:54:48.056Z,3.25
2022-10-09T18:59:50.413Z,3.35
2022-10-09T19:04:53.189Z,3.30
2022-10-09T19:09:57.354Z,3.35
2022-10-09T19:14:59.354Z,3.42
2022-10-09T19:20:01.179Z,3.13
2022-10-09T19:25:03.255Z,3.35
2022-10-09T19:30:05.724Z,3.15
2022-10-09T19:35:07.601Z,2.95
2022-10-09T19:40:09.198Z,3.05
2022-10-09T19:45:10.777Z,2.90
2022-10-09T19:50:14.940Z,3.00
2022-10-09T19:55:16.570Z,3.25
2022-10-09T20:00:18.131Z,3.15
2022-10-09T20:05:19.860Z,3.22
2022-10-09T20:10:21.388Z,3.10
2022-10-09T20:15:23.079Z,3.50
2022-10-09T20:20:27.014Z,3.40
2022-10-09T20:25:28.580Z,3.53
2022-10-09T20:30:30.272Z,4.07
2022-10-09T20:35:31.757Z,3.63
2022-10-09T20:40:33.888Z,2.90
2022-10-09T20:45:40.247Z,3.25
2022-10-09T20:50:42.235Z,3.50
2022-10-09T20:55:43.774Z,3.40
2022-10-09T21:00:45.326Z,3.72
2022-10-09T21:05:46.815Z,3.95
2022-10-09T21:10:49.651Z,3.95
2022-10-09T21:15:51.236Z,3.80
2022-10-09T21:20:52.756Z,4.10
2022-10-09T21:25:54.271Z,3.80
2022-10-09T21:30:56.000Z,3.80
2022-10-09T21:35:57.614Z,3.80
2022-10-09T21:40:59.117Z,4.07
2022-10-09T21:46:00.672Z,3.60
2022-10-09T21:51:02.145Z,3.78
2022-10-09T21:56:04.264Z,3.25
2022-10-09T22:01:06.227Z,3.33
2022-10-09T22:06:15.102Z,3.47
2022-10-09T22:11:19.682Z,3.72
2022-10-09T22:16:21.233Z,3.05
2022-10-09T22:21:22.957Z,3.40
2022-10-09T22:26:24.476Z,2.85
2022-10-09T22:31:27.257Z,3.20
2022-10-09T22:36:31.170Z,3.05
2022-10-09T22:41:34.411Z,3.03
2022-10-09T22:46:39.476Z,3.30
2022-10-09T22:51:41.346Z,3.20
2022-10-09T22:56:44.442Z,3.25
2022-10-09T23:01:53.371Z,3.28
2022-10-09T23:06:57.078Z,3.45
2022-10-09T23:11:59.648Z,2.92
2022-10-09T23:17:01.172Z,2.97
2022-10-09T23:22:02.720Z,3.35
2022-10-09T23:27:04.266Z,2.88
2022-10-09T23:32:05.768Z,2.67
2022-10-09T23:37:07.268Z,2.95
2022-10-09T23:42:08.744Z,2.90
2022-10-09T23:47:10.305Z,2.85
2022-10-09T23:52:11.828Z,3.45
2022-10-09T23:57:13.334Z,2.40
